Time;durP1;ratioP1;P1;durP2;ratioP2;P2;SDS_P1;SDS_P2;PMS_P1;PMS_P2;Temp;Humidity;BMP_temperature;BMP_pressure;BME280_temperature;BME280_humidity;BME280_pressure;Samples;Min_cycle;Max_cycle;Signal;HPM_P1;HPM_P2
2022/11/17 00:00:29;;;;;;;12.95;6.93;;;8.00;99.90;;;;;;4232198;27;20428;-85
2022/11/17 00:02:29;;;;;;;15.15;6.75;;;8.00;99.90;;;;;;4230226;28;20071;-85
2022/11/17 00:04:31;;;;;;;14.15;7.32;;;8.00;99.90;;;;;;4230941;28;20070;-85
2022/11/17 00:06:32;;;;;;;13.93;6.72;;;8.00;99.90;;;;;;4231549;28;20047;-85
2022/11/17 00:08:32;;;;;;;12.68;6.97;;;8.00;99.90;;;;;;4216180;28;20051;-85
2022/11/17 00:10:33;;;;;;;15.60;7.00;;;8.00;99.90;;;;;;4222563;28;20039;-85
2022/11/17 00:14:54;;;;;;;17.15;7.13;;;8.00;99.90;;;;;;4248731;27;20059;-85
2022/11/17 00:16:56;;;;;;;13.55;7.38;;;8.00;99.90;;;;;;4248592;27;20114;-86
2022/11/17 00:21:17;;;;;;;12.60;6.45;;;8.00;99.90;;;;;;4230739;28;20411;-86
2022/11/17 00:23:18;;;;;;;12.07;6.40;;;8.00;99.90;;;;;;4248236;27;20402;-85
2022/11/17 00:25:19;;;;;;;12.02;6.55;;;8.00;99.90;;;;;;4230622;28;20131;-86
2022/11/17 00:27:19;;;;;;;12.40;6.40;;;8.00;99.90;;;;;;4227116;28;20548;-86
2022/11/17 00:29:21;;;;;;;10.40;6.82;;;8.00;99.90;;;;;;4231294;28;20079;-86
2022/11/17 00:36:02;;;;;;;11.40;6.50;;;8.00;99.90;;;;;;4249932;27;20059;-85
2022/11/17 00:38:15;;;;;;;13.43;6.53;;;8.00;99.90;;;;;;4232789;28;20495;-86
2022/11/17 00:40:17;;;;;;;12.35;5.70;;;7.90;99.90;;;;;;4231845;28;20055;-85
2022/11/17 00:42:18;;;;;;;11.90;5.70;;;7.90;99.90;;;;;;4231467;28;20507;-86
2022/11/17 00:44:19;;;;;;;11.75;6.13;;;8.00;99.90;;;;;;4248375;27;20042;-85
2022/11/17 00:46:20;;;;;;;9.43;6.10;;;8.00;99.90;;;;;;4229597;28;20044;-85
2022/11/17 00:48:21;;;;;;;12.40;5.70;;;7.90;99.90;;;;;;4228943;28;20095;-85
2022/11/17 00:50:23;;;;;;;11.93;6.25;;;7.90;99.90;;;;;;4229132;28;20580;-85
2022/11/17 00:52:23;;;;;;;11.10;6.50;;;7.90;99.90;;;;;;4237103;27;20043;-84
2022/11/17 00:54:24;;;;;;;10.82;6.60;;;7.90;99.90;;;;;;4229057;28;20111;-86
2022/11/17 00:56:25;;;;;;;9.70;5.57;;;7.90;99.90;;;;;;4232235;27;20044;-86
2022/11/17 00:58:27;;;;;;;12.48;5.97;;;7.90;99.90;;;;;;4218196;28;20048;-85
2022/11/17 01:00:28;;;;;;;9.30;5.97;;;7.80;99.90;;;;;;4247122;27;20079;-85
2022/11/17 01:02:28;;;;;;;13.77;6.28;;;7.80;99.90;;;;;;4226891;28;20051;-85
2022/11/17 01:04:30;;;;;;;14.10;6.72;;;7.80;99.90;;;;;;4219292;28;20086;-85
2022/11/17 01:06:39;;;;;;;11.43;5.70;;;7.80;99.90;;;;;;4247156;28;20043;-85
2022/11/17 01:08:40;;;;;;;9.63;5.63;;;7.80;99.90;;;;;;4247318;28;20054;-85
2022/11/17 01:10:41;;;;;;;10.13;6.05;;;7.70;99.90;;;;;;4228645;28;20399;-86
2022/11/17 01:12:41;;;;;;;11.65;6.10;;;8.00;99.90;;;;;;4228610;28;20582;-85
2022/11/17 01:14:42;;;;;;;12.85;6.18;;;7.70;99.90;;;;;;4215287;28;20574;-86
2022/11/17 01:16:44;;;;;;;9.13;5.53;;;7.70;99.90;;;;;;4204019;28;20052;-85
2022/11/17 01:18:46;;;;;;;10.38;6.22;;;7.70;99.90;;;;;;4226656;28;20114;-85
2022/11/17 01:20:47;;;;;;;10.40;5.95;;;7.70;99.90;;;;;;4229995;28;20044;-85
2022/11/17 01:22:47;;;;;;;9.05;5.22;;;7.70;99.90;;;;;;4211607;28;20413;-85
2022/11/17 01:24:48;;;;;;;10.82;6.57;;;7.70;99.90;;;;;;4230207;28;20048;-85
2022/11/17 01:26:50;;;;;;;9.93;6.10;;;7.60;99.90;;;;;;4228771;28;20035;-85
2022/11/17 01:28:52;;;;;;;13.30;6.07;;;7.60;99.90;;;;;;4229507;28;20043;-85
2022/11/17 01:30:59;;;;;;;11.57;6.22;;;7.60;99.90;;;;;;4212120;28;20048;-85
2022/11/17 01:33:00;;;;;;;12.40;6.03;;;7.60;99.90;;;;;;4229125;28;20062;-85
2022/11/17 01:35:00;;;;;;;8.88;5.53;;;7.60;99.90;;;;;;4228931;28;20043;-85
2022/11/17 01:37:20;;;;;;;10.13;6.28;;;7.60;99.90;;;;;;4228698;28;20047;-85
2022/11/17 01:39:24;;;;;;;10.93;6.07;;;7.60;99.90;;;;;;4226718;28;20567;-85
2022/11/17 01:41:27;;;;;;;9.75;5.68;;;7.50;99.90;;;;;;4226782;28;20047;-85
2022/11/17 01:43:47;;;;;;;11.23;5.10;;;7.60;99.90;;;;;;4228635;28;20113;-86
2022/11/17 01:45:48;;;;;;;11.38;6.13;;;7.50;99.90;;;;;;4233333;28;20496;-86
2022/11/17 01:47:57;;;;;;;11.57;6.20;;;7.60;99.90;;;;;;4232057;28;20062;-86
2022/11/17 01:50:28;;;;;;;9.60;5.63;;;7.50;99.90;;;;;;4233508;28;20055;-85
2022/11/17 01:52:33;;;;;;;12.23;5.60;;;7.50;99.90;;;;;;4233271;28;20505;-85
2022/11/17 01:54:39;;;;;;;10.85;5.63;;;7.50;99.90;;;;;;4234743;28;20047;-85
2022/11/17 01:56:44;;;;;;;9.52;5.82;;;7.50;99.90;;;;;;4232866;28;20108;-85
2022/11/17 01:58:57;;;;;;;13.10;5.68;;;7.50;99.90;;;;;;4235161;28;20495;-85
2022/11/17 02:00:59;;;;;;;9.85;5.90;;;7.50;99.90;;;;;;4203904;28;20072;-85
2022/11/17 02:03:00;;;;;;;10.95;5.97;;;7.50;99.90;;;;;;4234931;28;20043;-85
2022/11/17 02:05:17;;;;;;;10.23;5.40;;;7.50;99.90;;;;;;4233868;28;20404;-85
2022/11/17 02:07:27;;;;;;;8.05;4.88;;;7.50;99.90;;;;;;4218207;28;20504;-86
2022/11/17 02:09:29;;;;;;;10.90;5.28;;;7.50;99.90;;;;;;4234284;28;20298;-85
2022/11/17 02:11:34;;;;;;;10.15;5.25;;;7.50;99.90;;;;;;4232470;28;20085;-85
2022/11/17 02:13:37;;;;;;;10.80;6.22;;;7.50;99.90;;;;;;4229494;28;20062;-85
2022/11/17 02:15:39;;;;;;;11.90;5.55;;;7.40;99.90;;;;;;4223987;28;20035;-85
2022/11/17 02:17:41;;;;;;;11.98;6.72;;;7.40;99.90;;;;;;4200212;28;20049;-86
2022/11/17 02:19:48;;;;;;;10.82;5.72;;;7.50;99.90;;;;;;4226569;28;20047;-86
2022/11/17 02:21:58;;;;;;;8.82;5.00;;;7.50;99.90;;;;;;4231976;28;20090;-86
2022/11/17 02:24:22;;;;;;;29.00;6.70;;;7.50;99.90;;;;;;4232238;28;20552;-86
2022/11/17 02:26:44;;;;;;;8.50;5.18;;;7.40;99.90;;;;;;4218784;28;20051;-85
2022/11/17 02:29:20;;;;;;;10.95;5.63;;;7.50;99.90;;;;;;4231809;28;20085;-85
2022/11/17 02:31:28;;;;;;;10.13;5.28;;;7.50;99.90;;;;;;4223950;28;20047;-85
2022/11/17 02:34:04;;;;;;;12.13;5.15;;;7.50;99.90;;;;;;4232149;28;20563;-85
2022/11/17 02:36:24;;;;;;;8.43;4.82;;;7.50;99.90;;;;;;4231706;28;20511;-85
2022/11/17 02:38:34;;;;;;;9.95;4.57;;;8.10;99.90;;;;;;4231280;28;20514;-86
2022/11/17 02:41:48;;;;;;;9.18;5.15;;;7.50;99.90;;;;;;4231269;28;20169;-85
2022/11/17 02:44:24;;;;;;;9.20;5.57;;;7.50;99.90;;;;;;4147371;28;20078;-86
2022/11/17 02:46:27;;;;;;;9.98;5.30;;;7.50;99.90;;;;;;4153224;28;20091;-85
2022/11/17 02:48:36;;;;;;;9.32;5.32;;;7.50;99.90;;;;;;4191520;28;20124;-86
2022/11/17 02:50:40;;;;;;;9.38;5.60;;;7.50;99.90;;;;;;4232126;28;20132;-86
2022/11/17 02:52:41;;;;;;;8.25;5.28;;;7.50;99.90;;;;;;4232134;28;20539;-86
2022/11/17 02:54:42;;;;;;;9.70;5.22;;;7.50;99.90;;;;;;4231346;28;20111;-86
2022/11/17 02:56:43;;;;;;;11.13;5.95;;;7.50;99.90;;;;;;4233067;28;20044;-86
2022/11/17 02:58:46;;;;;;;9.35;5.57;;;7.50;99.90;;;;;;4231863;28;20079;-86
2022/11/17 03:01:03;;;;;;;15.80;7.30;;;7.50;99.90;;;;;;4232720;28;20451;-86
2022/11/17 03:03:09;;;;;;;9.35;5.85;;;7.50;99.90;;;;;;4232700;28;20187;-86
2022/11/17 03:05:28;;;;;;;12.93;6.65;;;7.40;99.90;;;;;;4228758;28;20047;-86
2022/11/17 03:07:35;;;;;;;;;;;7.40;99.90;;;;;;4233142;28;20036;-86
2022/11/17 03:09:57;;;;;;;10.57;5.45;;;7.40;99.90;;;;;;4214943;28;20339;-86
2022/11/17 03:12:10;;;;;;;13.88;6.40;;;7.40;99.90;;;;;;4214018;28;20581;-86
2022/11/17 03:14:41;;;;;;;10.77;6.05;;;7.40;99.90;;;;;;4226805;28;20079;-89
2022/11/17 03:17:00;;;;;;;10.25;5.65;;;7.40;99.90;;;;;;4196978;28;20063;-87
2022/11/17 03:19:18;;;;;;;9.68;5.85;;;7.40;99.90;;;;;;4218506;28;20048;-86
2022/11/17 03:21:35;;;;;;;9.82;5.95;;;7.40;99.90;;;;;;4232441;28;20048;-86
2022/11/17 03:23:47;;;;;;;13.60;6.70;;;7.40;99.90;;;;;;4229904;28;20043;-86
2022/11/17 03:25:53;;;;;;;12.45;7.18;;;7.30;99.90;;;;;;4215430;28;20055;-86
2022/11/17 03:27:58;;;;;;;12.30;6.70;;;7.30;99.90;;;;;;4217522;28;20499;-85
2022/11/17 03:30:04;;;;;;;9.63;6.60;;;7.30;99.90;;;;;;4229509;28;20119;-86
2022/11/17 03:32:08;;;;;;;11.02;6.22;;;7.30;99.90;;;;;;4215117;28;20425;-88
2022/11/17 03:34:13;;;;;;;11.73;6.75;;;7.30;99.90;;;;;;4218648;28;20097;-85
2022/11/17 03:36:21;;;;;;;10.80;5.85;;;7.30;99.90;;;;;;4227166;28;20054;-86
2022/11/17 03:38:25;;;;;;;10.35;5.80;;;7.30;99.90;;;;;;4232345;28;20062;-86
2022/11/17 03:40:30;;;;;;;9.02;5.90;;;7.30;99.90;;;;;;4230728;28;20522;-85
2022/11/17 03:42:33;;;;;;;8.98;5.80;;;7.20;99.90;;;;;;4230719;28;20117;-84
2022/11/17 03:44:38;;;;;;;11.20;6.72;;;7.20;99.90;;;;;;4231456;28;20052;-85
2022/11/17 03:46:42;;;;;;;11.35;6.07;;;7.20;99.90;;;;;;4232045;28;20047;-86
2022/11/17 03:48:50;;;;;;;11.02;6.65;;;7.20;99.90;;;;;;4231859;28;20054;-86
2022/11/17 03:50:51;;;;;;;9.60;6.30;;;7.40;99.90;;;;;;4230726;28;20127;-85
2022/11/17 03:52:52;;;;;;;10.13;6.25;;;7.10;99.90;;;;;;4231854;28;20521;-86
2022/11/17 03:54:53;;;;;;;12.80;6.57;;;7.10;99.90;;;;;;4231800;28;20050;-85
2022/11/17 03:57:18;;;;;;;17.95;6.25;;;7.10;99.90;;;;;;4231653;28;20043;-87
2022/11/17 03:59:45;;;;;;;9.52;5.75;;;7.10;99.90;;;;;;4228637;28;20039;-85
2022/11/17 04:01:47;;;;;;;12.75;6.38;;;7.10;99.90;;;;;;4229362;28;20044;-86
2022/11/17 04:03:48;;;;;;;10.88;5.72;;;7.10;99.90;;;;;;4228761;28;20052;-85
2022/11/17 04:05:48;;;;;;;14.18;6.78;;;7.00;99.90;;;;;;4223607;28;20074;-86
2022/11/17 04:07:49;;;;;;;9.02;5.45;;;7.00;99.90;;;;;;4225606;28;20050;-86
2022/11/17 04:09:50;;;;;;;15.60;6.78;;;7.20;99.90;;;;;;4225118;28;20496;-86
2022/11/17 04:16:30;;;;;;;11.00;6.22;;;6.90;99.90;;;;;;4249775;27;20042;-86
2022/11/17 04:18:32;;;;;;;10.90;5.50;;;6.90;99.90;;;;;;4237464;27;20470;-85
2022/11/17 04:20:37;;;;;;;12.20;6.97;;;6.90;99.90;;;;;;4229687;28;20047;-86
2022/11/17 04:22:38;;;;;;;8.85;5.78;;;6.80;99.90;;;;;;4248871;27;20399;-86
2022/11/17 04:24:39;;;;;;;10.43;5.78;;;6.80;99.90;;;;;;4230773;28;20464;-86
2022/11/17 04:29:01;;;;;;;9.82;6.13;;;6.80;99.90;;;;;;4229675;28;20048;-85
2022/11/17 04:31:21;;;;;;;12.15;6.30;;;6.80;99.90;;;;;;4248522;27;20509;-85
2022/11/17 04:33:22;;;;;;;12.52;6.55;;;6.70;99.90;;;;;;4246744;27;20079;-85
2022/11/17 04:35:24;;;;;;;9.98;6.10;;;;;;;;;;4248635;27;20046;-86
2022/11/17 04:37:24;;;;;;;11.20;6.22;;;6.70;99.90;;;;;;4248220;27;20091;-86
2022/11/17 04:39:26;;;;;;;10.07;6.03;;;6.70;99.90;;;;;;4248117;27;20074;-85
2022/11/17 04:43:48;;;;;;;8.43;5.35;;;6.70;99.90;;;;;;4248201;27;20444;-85
2022/11/17 04:45:49;;;;;;;10.13;5.70;;;6.70;99.90;;;;;;4248459;27;20039;-86
2022/11/17 04:47:51;;;;;;;9.20;6.10;;;6.70;99.90;;;;;;4247721;27;20071;-85
2022/11/17 04:49:51;;;;;;;10.38;5.88;;;6.70;99.90;;;;;;4227720;28;20048;-85
2022/11/17 04:51:54;;;;;;;9.55;5.15;;;7.00;99.90;;;;;;4229446;28;20463;-86
2022/11/17 04:53:56;;;;;;;8.50;5.65;;;6.70;99.90;;;;;;4248613;27;20146;-85
2022/11/17 04:56:01;;;;;;;10.57;5.70;;;6.70;99.90;;;;;;4248069;27;20153;-85
2022/11/17 04:58:02;;;;;;;8.85;5.30;;;6.70;99.90;;;;;;4247858;27;20050;-86
2022/11/17 05:00:04;;;;;;;11.10;6.00;;;6.70;99.90;;;;;;4230099;28;20090;-86
2022/11/17 05:02:04;;;;;;;8.77;5.75;;;6.60;99.90;;;;;;4230514;28;20122;-86
2022/11/17 05:04:11;;;;;;;10.07;6.00;;;6.60;99.90;;;;;;4214333;28;20113;-86
2022/11/17 05:06:19;;;;;;;11.45;6.43;;;6.60;99.90;;;;;;4231096;28;20062;-86
2022/11/17 05:08:21;;;;;;;9.97;5.70;;;6.60;99.90;;;;;;4249452;28;20043;-85
2022/11/17 05:15:01;;;;;;;10.88;6.07;;;6.50;99.90;;;;;;4237112;28;20051;-86
2022/11/17 05:17:04;;;;;;;10.10;6.00;;;6.60;99.90;;;;;;4254815;28;20035;-86
2022/11/17 05:19:07;;;;;;;12.15;6.50;;;6.50;99.90;;;;;;4237151;28;20054;-85
2022/11/17 05:21:10;;;;;;;10.15;5.75;;;6.50;99.90;;;;;;4225489;28;20048;-85
2022/11/17 05:25:31;;;;;;;10.13;5.53;;;6.50;99.90;;;;;;4239576;28;20058;-85
2022/11/17 05:27:33;;;;;;;11.07;6.28;;;6.50;99.90;;;;;;4220349;28;20504;-85
2022/11/17 05:29:35;;;;;;;10.25;6.30;;;6.50;99.90;;;;;;4232565;28;20127;-86
2022/11/17 05:31:36;;;;;;;10.65;6.47;;;6.50;99.90;;;;;;4233514;28;20049;-86
2022/11/17 05:33:36;;;;;;;15.70;6.35;;;6.50;99.90;;;;;;4232704;28;20064;-85
2022/11/17 05:35:38;;;;;;;9.95;5.95;;;6.50;99.90;;;;;;4250525;27;20050;-85
2022/11/17 05:37:40;;;;;;;9.68;5.97;;;6.40;99.90;;;;;;4251303;27;20443;-86
2022/11/17 05:39:41;;;;;;;9.88;5.82;;;6.40;99.90;;;;;;4232693;28;20481;-85
2022/11/17 05:41:42;;;;;;;9.23;5.72;;;6.40;99.90;;;;;;4215657;28;20229;-86
2022/11/17 05:43:45;;;;;;;8.68;5.57;;;6.40;99.90;;;;;;4221921;28;20139;-86
2022/11/17 05:45:47;;;;;;;10.82;5.45;;;6.90;99.90;;;;;;4213324;28;20101;-86
2022/11/17 05:47:48;;;;;;;8.32;5.13;;;6.40;99.90;;;;;;4234536;28;20060;-86
2022/11/17 05:49:50;;;;;;;10.65;5.55;;;6.40;99.90;;;;;;4243625;27;20441;-85
2022/11/17 05:51:51;;;;;;;8.40;5.55;;;6.40;99.90;;;;;;4232557;28;20547;-85
2022/11/17 05:53:52;;;;;;;7.60;5.40;;;6.40;99.90;;;;;;4250805;27;20047;-85
2022/11/17 05:56:10;;;;;;;6.70;4.68;;;6.40;99.90;;;;;;4215419;28;20075;-85
2022/11/17 05:58:22;;;;;;;7.50;4.78;;;6.30;99.90;;;;;;4250906;27;20384;-85
2022/11/17 06:00:23;;;;;;;9.40;5.20;;;6.30;99.90;;;;;;4230092;28;20052;-85
2022/11/17 06:02:29;;;;;;;8.70;4.85;;;6.30;99.90;;;;;;4230126;28;20103;-86
2022/11/17 06:04:31;;;;;;;11.77;4.40;;;6.30;99.90;;;;;;4255556;27;20499;-85
2022/11/17 06:06:35;;;;;;;7.82;4.93;;;6.30;99.90;;;;;;4251911;27;20570;-85
2022/11/17 06:08:36;;;;;;;8.25;4.60;;;6.30;99.90;;;;;;4215598;28;20052;-86
2022/11/17 06:10:38;;;;;;;9.43;4.45;;;6.30;99.90;;;;;;4242042;27;20047;-85
2022/11/17 06:12:38;;;;;;;7.18;4.40;;;6.30;99.90;;;;;;4231995;28;20108;-85
2022/11/17 06:14:39;;;;;;;7.75;4.82;;;6.30;99.90;;;;;;4230938;28;20507;-85
2022/11/17 06:16:45;;;;;;;9.88;5.03;;;6.30;99.90;;;;;;4231852;28;20043;-85
2022/11/17 06:18:58;;;;;;;6.60;4.32;;;6.30;99.90;;;;;;4249852;28;20086;-86
2022/11/17 06:21:00;;;;;;;7.28;4.20;;;6.20;99.90;;;;;;4201758;28;20487;-86
2022/11/17 06:23:04;;;;;;;6.22;4.00;;;6.20;99.90;;;;;;4225870;28;20048;-86
2022/11/17 06:25:07;;;;;;;7.43;4.10;;;6.20;99.90;;;;;;4230655;28;20050;-86
2022/11/17 06:27:10;;;;;;;8.40;4.40;;;6.20;99.90;;;;;;4214287;28;20056;-86
2022/11/17 06:29:14;;;;;;;7.38;3.75;;;6.20;99.90;;;;;;4227273;28;20466;-87
2022/11/17 06:31:16;;;;;;;6.63;3.83;;;6.20;99.90;;;;;;4248824;27;20058;-86
2022/11/17 06:33:18;;;;;;;7.78;4.30;;;6.20;99.90;;;;;;4231148;28;20126;-86
2022/11/17 06:35:19;;;;;;;7.03;4.10;;;6.20;99.90;;;;;;4244210;28;20079;-86
2022/11/17 06:37:20;;;;;;;7.43;3.80;;;6.20;99.90;;;;;;4244231;28;20051;-86
2022/11/17 06:39:21;;;;;;;7.32;4.55;;;6.20;99.90;;;;;;4214315;28;20500;-86
2022/11/17 06:41:21;;;;;;;7.55;4.45;;;6.20;99.90;;;;;;4246614;28;20043;-86
2022/11/17 06:43:22;;;;;;;5.60;3.42;;;6.20;99.90;;;;;;4248534;28;20051;-86
2022/11/17 06:45:23;;;;;;;7.93;3.80;;;6.20;99.90;;;;;;4215357;28;20054;-86
2022/11/17 06:47:23;;;;;;;6.80;3.88;;;6.20;99.90;;;;;;4232896;28;20505;-85
2022/11/17 06:49:25;;;;;;;8.48;4.00;;;6.20;99.90;;;;;;4203419;28;20109;-85
2022/11/17 06:51:27;;;;;;;5.10;3.53;;;6.20;99.90;;;;;;4245120;28;20043;-85
2022/11/17 06:53:29;;;;;;;7.07;4.03;;;6.20;99.90;;;;;;4213318;28;20052;-85
2022/11/17 06:55:30;;;;;;;6.93;3.70;;;6.20;99.90;;;;;;4203927;28;20058;-85
2022/11/17 06:57:31;;;;;;;6.35;3.40;;;6.20;99.90;;;;;;4196754;28;20064;-85
2022/11/17 06:59:32;;;;;;;6.53;3.53;;;6.20;99.90;;;;;;4229697;28;20125;-85
2022/11/17 07:01:33;;;;;;;9.98;3.67;;;6.20;99.90;;;;;;4248577;28;20055;-85
2022/11/17 07:03:38;;;;;;;8.60;4.07;;;6.20;99.90;;;;;;4230365;28;20039;-86
2022/11/17 07:05:39;;;;;;;6.75;3.95;;;6.20;99.90;;;;;;4248256;28;20479;-85
2022/11/17 07:07:40;;;;;;;8.00;3.78;;;6.20;99.90;;;;;;4213361;28;20094;-85
2022/11/17 07:09:41;;;;;;;6.70;3.63;;;6.20;99.90;;;;;;4234190;28;20073;-85
2022/11/17 07:11:43;;;;;;;7.85;3.75;;;6.20;99.90;;;;;;4248359;28;20051;-85
2022/11/17 07:13:43;;;;;;;6.63;3.72;;;6.20;99.90;;;;;;4190298;28;1135908;-85
2022/11/17 07:15:44;;;;;;;6.38;4.15;;;6.10;99.90;;;;;;4248284;27;20043;-85
2022/11/17 07:17:45;;;;;;;6.15;3.35;;;6.20;99.90;;;;;;4249047;27;20050;-85
2022/11/17 07:19:47;;;;;;;6.10;3.83;;;6.20;99.90;;;;;;4248986;27;20043;-85
2022/11/17 07:21:49;;;;;;;7.07;3.90;;;6.20;99.90;;;;;;4248882;27;20046;-85
2022/11/17 07:23:50;;;;;;;6.18;3.90;;;6.10;99.90;;;;;;4249503;27;20471;-85
2022/11/17 07:25:52;;;;;;;6.72;3.97;;;6.10;99.90;;;;;;4225997;28;20098;-85
2022/11/17 07:27:59;;;;;;;8.20;3.50;;;6.10;99.90;;;;;;4232055;28;20083;-85
2022/11/17 07:30:00;;;;;;;6.93;3.67;;;6.20;99.90;;;;;;4231755;28;20044;-86
2022/11/17 07:32:01;;;;;;;7.35;3.67;;;6.20;99.90;;;;;;4243566;27;20053;-86
2022/11/17 07:34:03;;;;;;;6.35;3.53;;;6.10;99.90;;;;;;4230525;28;20121;-85
2022/11/17 07:36:06;;;;;;;6.90;3.60;;;6.10;99.90;;;;;;4248789;27;20039;-85
2022/11/17 07:38:07;;;;;;;5.13;3.25;;;6.10;99.90;;;;;;4230658;28;20051;-85
2022/11/17 07:40:09;;;;;;;7.68;3.47;;;6.40;99.90;;;;;;4248442;27;20051;-85
2022/11/17 07:42:09;;;;;;;5.53;3.15;;;6.20;99.90;;;;;;4230085;28;20051;-85
2022/11/17 07:44:11;;;;;;;5.80;3.22;;;6.10;99.90;;;;;;4211495;28;20316;-85
2022/11/17 07:46:14;;;;;;;4.82;3.05;;;6.20;99.90;;;;;;4225627;28;20142;-85
2022/11/17 07:48:15;;;;;;;5.63;3.42;;;6.20;99.90;;;;;;4245015;27;20078;-84
2022/11/17 07:50:16;;;;;;;7.25;3.45;;;6.20;99.90;;;;;;4247029;27;20043;-84
2022/11/17 07:52:17;;;;;;;6.50;3.58;;;6.20;99.90;;;;;;4226915;28;20120;-84
2022/11/17 07:54:18;;;;;;;6.10;3.30;;;6.20;99.90;;;;;;4233145;28;20054;-85
2022/11/17 07:56:19;;;;;;;5.90;3.08;;;6.20;99.90;;;;;;4228957;28;20054;-84
2022/11/17 07:58:19;;;;;;;6.13;3.05;;;6.20;99.90;;;;;;4249474;27;20043;-84
2022/11/17 08:00:20;;;;;;;4.63;2.97;;;6.20;99.90;;;;;;4249676;27;20398;-84
2022/11/17 08:02:22;;;;;;;6.03;2.60;;;6.20;99.90;;;;;;4231458;28;20051;-84
2022/11/17 08:04:24;;;;;;;5.03;3.03;;;6.20;99.90;;;;;;4245168;27;20043;-84
2022/11/17 08:06:24;;;;;;;4.72;2.67;;;6.20;99.90;;;;;;4232580;28;20044;-84
2022/11/17 08:08:26;;;;;;;5.38;2.80;;;6.20;99.90;;;;;;4213961;28;20048;-85
2022/11/17 08:10:30;;;;;;;5.32;3.08;;;6.20;99.90;;;;;;4231892;28;20192;-84
2022/11/17 08:12:30;;;;;;;6.82;2.60;;;6.20;99.90;;;;;;4250175;27;20054;-84
2022/11/17 08:14:31;;;;;;;5.72;3.03;;;6.20;99.90;;;;;;4231757;28;20093;-85
2022/11/17 08:16:32;;;;;;;4.75;2.70;;;6.20;99.90;;;;;;4250387;27;20483;-84
2022/11/17 08:18:33;;;;;;;7.18;2.90;;;6.20;99.90;;;;;;4249986;27;20046;-84
2022/11/17 08:20:33;;;;;;;5.85;2.40;;;6.20;99.90;;;;;;4231243;28;20043;-85
2022/11/17 08:22:34;;;;;;;3.00;2.17;;;6.10;99.90;;;;;;4249659;27;20045;-84
2022/11/17 08:24:35;;;;;;;3.88;2.38;;;6.20;99.90;;;;;;4214353;28;20135;-85
2022/11/17 08:26:36;;;;;;;4.75;2.75;;;6.10;99.90;;;;;;4213763;28;20048;-85
2022/11/17 08:28:37;;;;;;;4.47;2.35;;;6.10;99.90;;;;;;4250037;27;20114;-84
2022/11/17 08:30:39;;;;;;;4.20;2.47;;;6.10;99.90;;;;;;4214465;28;20052;-84
2022/11/17 08:32:50;;;;;;;4.50;2.25;;;6.10;99.90;;;;;;4249654;27;20051;-84
2022/11/17 08:34:51;;;;;;;3.47;2.38;;;6.10;99.90;;;;;;4231322;28;20057;-85
2022/11/17 08:36:52;;;;;;;4.88;2.33;;;6.50;99.90;;;;;;4231471;28;20523;-85
2022/11/17 08:38:52;;;;;;;5.13;2.70;;;6.10;99.90;;;;;;4249628;27;20533;-84
2022/11/17 08:41:06;;;;;;;5.68;2.50;;;6.10;99.90;;;;;;4244999;27;20548;-85
2022/11/17 08:43:07;;;;;;;4.30;2.13;;;6.60;99.90;;;;;;4201807;28;20093;-85
2022/11/17 08:45:09;;;;;;;6.68;2.60;;;6.20;99.90;;;;;;4250054;27;20543;-85
2022/11/17 08:47:11;;;;;;;3.90;2.55;;;6.10;99.90;;;;;;4244928;27;20047;-85
2022/11/17 08:49:12;;;;;;;4.47;2.53;;;6.10;99.90;;;;;;4248480;27;20051;-86
2022/11/17 08:51:14;;;;;;;5.60;3.00;;;6.20;99.90;;;;;;4249537;27;20067;-86
2022/11/17 08:53:19;;;;;;;5.03;2.55;;;6.10;99.90;;;;;;4231443;28;20051;-87
2022/11/17 08:55:20;;;;;;;4.70;2.88;;;6.20;99.90;;;;;;4247626;27;20039;-85
2022/11/17 08:57:22;;;;;;;6.18;3.00;;;6.10;99.90;;;;;;4223736;28;20085;-86
2022/11/17 08:59:23;;;;;;;4.57;2.45;;;6.20;99.90;;;;;;4239797;28;20055;-85
2022/11/17 09:01:23;;;;;;;4.90;2.97;;;6.20;99.90;;;;;;4232943;28;20070;-86
2022/11/17 09:03:24;;;;;;;6.38;2.85;;;6.20;99.90;;;;;;4246825;27;20050;-85
2022/11/17 09:05:25;;;;;;;4.90;2.50;;;6.60;99.90;;;;;;4218472;28;20441;-86
2022/11/17 09:07:26;;;;;;;7.57;2.92;;;6.20;99.90;;;;;;4244366;28;20050;-86
2022/11/17 09:09:30;;;;;;;7.47;2.58;;;6.20;99.90;;;;;;4232532;28;20130;-86
2022/11/17 09:11:31;;;;;;;4.50;2.85;;;6.20;99.90;;;;;;4231606;28;20189;-87
2022/11/17 09:13:32;;;;;;;6.15;3.08;;;6.20;99.90;;;;;;4249842;28;20059;-87
2022/11/17 09:15:33;;;;;;;5.80;3.25;;;6.30;99.90;;;;;;4232025;28;20044;-87
2022/11/17 09:17:34;;;;;;;5.03;3.03;;;6.30;99.90;;;;;;4231787;28;20047;-86
2022/11/17 09:19:35;;;;;;;4.80;2.78;;;6.20;99.90;;;;;;4231610;28;20083;-85
2022/11/17 09:21:36;;;;;;;4.38;2.65;;;6.30;99.90;;;;;;4249089;28;20054;-86
2022/11/17 09:23:37;;;;;;;4.75;2.42;;;6.30;99.90;;;;;;4214429;28;20047;-86
2022/11/17 09:25:38;;;;;;;4.57;2.72;;;6.30;99.90;;;;;;4249426;28;20050;-86
2022/11/17 09:27:39;;;;;;;5.68;3.45;;;6.30;99.90;;;;;;4249522;28;20556;-86
2022/11/17 09:29:40;;;;;;;6.82;3.25;;;6.40;99.90;;;;;;4249745;28;20044;-85
2022/11/17 09:31:41;;;;;;;7.45;2.92;;;6.30;99.90;;;;;;4215040;28;20052;-86
2022/11/17 09:33:42;;;;;;;5.25;3.05;;;6.30;99.90;;;;;;4230927;28;20052;-85
2022/11/17 09:35:43;;;;;;;4.72;3.00;;;6.30;99.90;;;;;;4235034;28;20100;-86
2022/11/17 09:37:45;;;;;;;6.55;3.42;;;6.30;99.90;;;;;;4215251;28;20052;-86
2022/11/17 09:39:47;;;;;;;5.03;2.92;;;6.30;99.90;;;;;;4230379;28;20044;-86
2022/11/17 09:41:50;;;;;;;5.25;2.95;;;6.30;99.90;;;;;;4216205;28;20044;-86
2022/11/17 09:44:13;;;;;;;3.67;2.60;;;6.30;99.90;;;;;;4242719;28;20057;-86
2022/11/17 09:46:36;;;;;;;3.92;2.55;;;6.30;99.90;;;;;;4214523;28;20052;-86
2022/11/17 09:48:54;;;;;;;4.45;2.72;;;6.30;99.90;;;;;;4246536;28;20043;-86
2022/11/17 09:50:56;;;;;;;6.40;3.45;;;6.30;99.90;;;;;;4235690;28;20054;-86
2022/11/17 09:53:18;;;;;;;5.43;2.90;;;6.30;99.90;;;;;;4230745;28;20039;-86
2022/11/17 09:55:49;;;;;;;5.15;2.75;;;6.30;99.90;;;;;;4203192;28;20126;-86
2022/11/17 09:58:02;;;;;;;5.00;2.97;;;6.30;99.90;;;;;;4229705;28;20169;-86
2022/11/17 10:00:05;;;;;;;6.85;3.20;;;6.30;99.90;;;;;;4230709;28;20550;-87
2022/11/17 10:02:09;;;;;;;6.50;3.45;;;6.30;99.90;;;;;;4230025;28;20044;-87
2022/11/17 10:04:15;;;;;;;4.57;2.97;;;6.30;99.90;;;;;;4229721;28;20121;-87
2022/11/17 10:06:20;;;;;;;4.03;2.95;;;6.40;99.90;;;;;;4232472;28;20056;-87
2022/11/17 10:08:32;;;;;;;5.88;3.25;;;6.40;99.90;;;;;;4233386;28;20056;-86
2022/11/17 10:10:43;;;;;;;7.50;3.10;;;6.30;99.90;;;;;;4231923;28;20062;-86
2022/11/17 10:12:50;;;;;;;4.40;3.15;;;6.30;99.90;;;;;;4239885;27;20446;-87
2022/11/17 10:14:53;;;;;;;5.88;3.22;;;6.30;99.90;;;;;;4217894;28;20142;-86
2022/11/17 10:16:56;;;;;;;5.35;2.95;;;6.30;99.90;;;;;;4210176;28;20118;-85
2022/11/17 10:18:57;;;;;;;7.13;3.65;;;6.30;99.90;;;;;;4215160;28;20486;-87
2022/11/17 10:20:58;;;;;;;6.28;3.50;;;6.30;99.90;;;;;;4220326;28;20040;-87
2022/11/17 10:23:01;;;;;;;5.70;3.40;;;6.30;99.90;;;;;;4229409;28;20058;-85
2022/11/17 10:25:02;;;;;;;11.07;3.50;;;6.30;99.90;;;;;;4217179;28;20488;-86
2022/11/17 10:27:21;;;;;;;5.35;3.17;;;6.30;99.90;;;;;;4236300;28;20043;-86
2022/11/17 10:29:22;;;;;;;5.25;3.17;;;6.30;99.90;;;;;;4236905;28;20047;-87
2022/11/17 10:31:23;;;;;;;5.32;3.20;;;6.30;99.90;;;;;;4234235;28;20044;-86
2022/11/17 10:33:37;;;;;;;6.50;2.88;;;6.40;99.90;;;;;;4235603;28;20061;-86
2022/11/17 10:35:38;;;;;;;7.00;3.83;;;6.40;99.90;;;;;;4234351;28;20048;-85
2022/11/17 10:38:00;;;;;;;7.32;3.40;;;6.40;99.90;;;;;;4218812;28;20048;-84
2022/11/17 10:40:19;;;;;;;5.72;3.22;;;6.30;99.90;;;;;;4233896;28;20058;-86
2022/11/17 10:42:26;;;;;;;5.72;3.00;;;6.40;99.90;;;;;;4233932;28;20042;-86
2022/11/17 10:44:30;;;;;;;6.30;3.13;;;6.40;99.90;;;;;;4233514;28;20055;-86
2022/11/17 10:46:32;;;;;;;5.50;3.15;;;6.40;99.90;;;;;;4234425;28;20060;-86
2022/11/17 10:48:35;;;;;;;6.70;3.30;;;6.40;99.90;;;;;;4234642;28;20100;-86
2022/11/17 10:50:36;;;;;;;5.60;3.20;;;6.40;99.90;;;;;;4232804;28;20044;-86
2022/11/17 10:52:38;;;;;;;7.22;3.30;;;6.40;99.90;;;;;;4233440;28;20585;-86
2022/11/17 10:54:39;;;;;;;4.72;2.92;;;6.40;99.90;;;;;;4232777;28;20028;-85
2022/11/17 10:56:43;;;;;;;5.25;3.03;;;6.40;99.90;;;;;;4233499;28;20048;-85
2022/11/17 10:59:17;;;;;;;5.05;2.70;;;6.40;99.90;;;;;;4232705;28;20606;-86
2022/11/17 11:01:36;;;;;;;5.30;3.00;;;6.40;99.90;;;;;;4232678;28;20126;-86
2022/11/17 11:03:48;;;;;;;4.97;3.20;;;6.40;99.90;;;;;;4232584;28;20040;-86
2022/11/17 11:06:06;;;;;;;7.13;3.47;;;6.40;99.90;;;;;;4216002;28;20048;-86
2022/11/17 11:08:20;;;;;;;5.37;3.60;;;6.40;99.90;;;;;;4230221;28;20047;-86
2022/11/17 11:10:23;;;;;;;6.13;3.22;;;6.40;99.90;;;;;;4234238;28;20543;-85
2022/11/17 11:12:35;;;;;;;5.15;3.25;;;6.40;99.90;;;;;;4235078;28;20043;-86
2022/11/17 11:14:40;;;;;;;5.43;3.33;;;6.30;99.90;;;;;;4233231;28;20048;-86
2022/11/17 11:16:43;;;;;;;5.40;3.40;;;6.30;99.90;;;;;;4232464;28;20052;-86
2022/11/17 11:18:45;;;;;;;4.47;2.58;;;6.30;99.90;;;;;;4232678;28;20079;-86
2022/11/17 11:21:06;;;;;;;8.48;3.70;;;6.30;99.90;;;;;;4217102;28;20044;-86